Time;durP1;ratioP1;P1;durP2;ratioP2;P2;SDS_P1;SDS_P2;PMS_P1;PMS_P2;Temp;Humidity;BMP_temperature;BMP_pressure;BME280_temperature;BME280_humidity;BME280_pressure;Samples;Min_cycle;Max_cycle;Signal;HPM_P1;HPM_P2
2022/12/17 13:06:40;;;;;;;59.75;34.55;;;;;;;0.42;100.00;102524.22;5146012;29;20035;-69
2022/12/17 13:09:14;;;;;;;62.33;36.20;;;;;;;0.24;100.00;102523.63;5148562;28;20106;-69
2022/12/17 13:11:49;;;;;;;60.20;36.58;;;;;;;0.24;100.00;102522.75;5151600;28;20031;-69
2022/12/17 13:14:25;;;;;;;64.50;36.53;;;;;;;0.30;100.00;102526.97;5150588;29;20051;-69
2022/12/17 13:17:03;;;;;;;63.85;37.20;;;;;;;0.36;100.00;102527.72;5149196;29;20445;-69
2022/12/17 13:19:48;;;;;;;62.72;37.30;;;;;;;0.40;100.00;102533.69;5146845;28;20028;-69
2022/12/17 13:22:20;;;;;;;64.57;36.60;;;;;;;0.33;100.00;102534.66;5150395;29;20538;-69
2022/12/17 13:24:54;;;;;;;62.10;37.13;;;;;;;0.31;100.00;102532.13;5150795;29;20094;-69
2022/12/17 13:27:30;;;;;;;63.75;37.08;;;;;;;0.28;100.00;102526.16;5152222;29;20290;-69
2022/12/17 13:30:16;;;;;;;61.60;35.65;;;;;;;0.32;100.00;102517.50;5150903;28;20027;-69
2022/12/17 13:33:21;;;;;;;62.72;36.92;;;;;;;0.29;100.00;102520.13;5151065;29;20072;-69
2022/12/17 13:36:03;;;;;;;62.92;36.03;;;;;;;0.25;100.00;102524.47;5143197;29;20027;-69
2022/12/17 13:38:49;;;;;;;57.22;34.35;;;;;;;0.23;100.00;102518.50;5145603;29;20046;-69
2022/12/17 13:41:27;;;;;;;63.78;36.22;;;;;;;0.16;100.00;102519.44;5147981;28;20227;-69
2022/12/17 13:44:03;;;;;;;66.25;37.17;;;;;;;0.14;100.00;102516.03;5151497;29;20069;-69
2022/12/17 13:46:41;;;;;;;60.67;34.72;;;;;;;0.17;100.00;102518.56;5148402;29;20090;-69
2022/12/17 13:49:24;;;;;;;62.95;35.03;;;;;;;0.21;100.00;102517.66;5153795;29;20027;-69
2022/12/17 13:52:04;;;;;;;61.33;35.67;;;;;;;0.12;100.00;102518.66;5151970;29;20400;-69
2022/12/17 13:54:35;;;;;;;64.85;37.17;;;;;;;0.02;100.00;102522.22;5154216;29;20039;-69
2022/12/17 13:57:37;;;;;;;62.67;36.50;;;;;;;0.19;100.00;102515.09;5145823;29;20432;-69
2022/12/17 14:00:19;;;;;;;63.67;35.92;;;;;;;0.00;100.00;102523.97;5133677;29;20504;-69
2022/12/17 14:02:51;;;;;;;67.63;37.20;;;;;;;-0.10;100.00;102515.50;5150796;29;20023;-69
2022/12/17 14:05:24;;;;;;;65.97;37.05;;;;;;;-0.05;100.00;102524.00;5146229;29;20031;-69
2022/12/17 14:08:02;;;;;;;61.97;35.17;;;;;;;-0.03;100.00;102516.28;5137173;29;20164;-69
2022/12/17 14:10:33;;;;;;;65.78;35.60;;;;;;;-0.16;100.00;102517.31;5150038;29;20420;-69
2022/12/17 14:13:09;;;;;;;58.58;34.05;;;;;;;-0.11;100.00;102521.53;5151345;28;20062;-70
2022/12/17 14:15:50;;;;;;;59.38;32.88;;;;;;;-0.09;100.00;102527.50;5147589;29;20102;-69
2022/12/17 14:18:21;;;;;;;60.78;34.90;;;;;;;-0.20;100.00;102525.94;5145952;29;20054;-69
2022/12/17 14:20:54;;;;;;;67.07;36.30;;;;;;;-0.16;100.00;102528.47;5146504;28;20023;-69
2022/12/17 14:23:31;;;;;;;61.15;34.20;;;;;;;-0.07;100.00;102538.66;5146279;29;20477;-69
2022/12/17 14:26:03;;;;;;;61.42;34.38;;;;;;;-0.14;100.00;102533.59;5151468;29;20511;-69
2022/12/17 14:28:45;;;;;;;61.63;34.63;;;;;;;-0.07;100.00;102535.25;5132222;29;20047;-69
2022/12/17 14:31:21;;;;;;;64.53;34.92;;;;;;;-0.01;100.00;102533.41;5131275;29;20023;-70
2022/12/17 14:34:00;;;;;;;66.03;35.75;;;;;;;0.06;100.00;102535.91;5149849;29;20031;-69
2022/12/17 14:36:35;;;;;;;65.68;35.80;;;;;;;-0.07;100.00;102533.50;5148910;29;20027;-69
2022/12/17 14:39:27;;;;;;;64.22;35.63;;;;;;;0.06;100.00;102548.78;5147374;29;20114;-69
2022/12/17 14:42:29;;;;;;;66.38;35.67;;;;;;;-0.09;100.00;102544.69;5150149;23;20066;-69
2022/12/17 14:45:05;;;;;;;64.32;35.15;;;;;;;-0.27;100.00;102548.34;5141175;29;20070;-69
2022/12/17 14:47:37;;;;;;;68.15;35.88;;;;;;;-0.42;100.00;102551.94;5141489;29;20035;-69
2022/12/17 14:50:11;;;;;;;61.55;32.55;;;;;;;-0.32;100.00;102548.41;5140730;29;20027;-69
2022/12/17 14:52:45;;;;;;;72.03;37.22;;;;;;;-0.49;100.00;102558.06;5131617;29;20457;-69
2022/12/17 14:55:35;;;;;;;65.32;34.28;;;;;;;-0.40;100.00;102555.38;5131033;29;20098;-69
2022/12/17 14:58:13;;;;;;;64.03;33.03;;;;;;;-0.30;100.00;102554.41;5128872;29;20036;-69
2022/12/17 15:00:46;;;;;;;66.53;36.25;;;;;;;-0.33;100.00;102556.16;5133132;29;20384;-69
2022/12/17 15:03:22;;;;;;;;;;;;;;;0.05;100.00;102558.25;5130754;29;20102;-69
2022/12/17 15:06:01;;;;;;;66.22;32.55;;;;;;;-0.35;100.00;102561.31;5132477;29;19915;-69
2022/12/17 15:08:36;;;;;;;65.90;35.28;;;;;;;-0.52;100.00;102563.25;5126097;29;20460;-69
2022/12/17 15:11:11;;;;;;;64.00;33.35;;;;;;;-0.51;100.00;102562.38;5130696;29;20038;-69
2022/12/17 15:13:42;;;;;;;67.10;34.60;;;;;;;-0.60;100.00;102560.75;5133367;29;20032;-69
2022/12/17 15:16:13;;;;;;;68.07;35.00;;;;;;;-0.56;100.00;102564.16;5131192;29;20378;-69
2022/12/17 15:18:45;;;;;;;62.58;33.65;;;;;;;-0.57;100.00;102570.16;5127948;29;20473;-69
2022/12/17 15:21:17;;;;;;;65.72;33.63;;;;;;;-0.58;100.00;102578.75;5133096;29;20023;-69
2022/12/17 15:23:48;;;;;;;67.67;36.27;;;;;;;-0.58;100.00;102584.75;5132494;29;20072;-69
2022/12/17 15:26:20;;;;;;;69.60;34.95;;;;;;;-0.60;100.00;102589.06;5133900;29;20065;-69
2022/12/17 15:28:51;;;;;;;76.35;36.85;;;;;;;-0.68;100.00;102595.16;5129846;29;20032;-69
2022/12/17 15:31:22;;;;;;;68.50;34.85;;;;;;;-0.74;100.00;102596.91;5127337;29;20413;-69
2022/12/17 15:33:54;;;;;;;70.32;34.83;;;;;;;-0.75;100.00;102587.50;5127195;29;20028;-69
2022/12/17 15:36:25;;;;;;;70.90;36.13;;;;;;;-0.82;100.00;102595.28;5129232;29;20058;-69
2022/12/17 15:38:57;;;;;;;71.70;34.85;;;;;;;-0.81;100.00;102599.56;5129421;29;20027;-69
2022/12/17 15:44:18;;;;;;;66.60;35.08;;;;;;;-0.81;100.00;102597.00;5131483;29;20036;-69
2022/12/17 15:46:50;;;;;;;73.53;37.50;;;;;;;-0.80;100.00;102598.69;5132126;29;20028;-69
2022/12/17 15:49:21;;;;;;;76.25;39.03;;;;;;;-0.83;100.00;102602.16;5129714;29;20325;-69
2022/12/17 15:51:52;;;;;;;74.63;37.67;;;;;;;-0.81;100.00;102594.41;5126335;29;20035;-69
2022/12/17 15:54:24;;;;;;;70.25;37.30;;;;;;;-0.78;100.00;102602.13;5114392;29;20023;-69
2022/12/17 15:56:55;;;;;;;70.72;35.75;;;;;;;-0.83;100.00;102597.03;5126889;29;20557;-69
2022/12/17 15:59:26;;;;;;;63.53;34.70;;;;;;;-0.77;100.00;102606.38;5129817;29;20057;-69
2022/12/17 16:01:58;;;;;;;69.70;36.00;;;;;;;-0.77;100.00;102602.09;5130567;29;20027;-69
2022/12/17 16:04:29;;;;;;;71.10;36.90;;;;;;;-0.70;100.00;102614.91;5131310;29;20046;-69
2022/12/17 16:07:00;;;;;;;69.57;36.38;;;;;;;-0.70;100.00;102623.47;5126383;29;20035;-69
2022/12/17 16:09:32;;;;;;;67.65;35.60;;;;;;;-0.73;100.00;102619.19;5127779;29;20039;-69
2022/12/17 16:12:03;;;;;;;73.97;36.53;;;;;;;-0.79;100.00;102616.72;5131188;29;20037;-69
2022/12/17 16:14:34;;;;;;;66.22;36.13;;;;;;;-0.84;100.00;102609.88;5129848;29;20035;-69
2022/12/17 16:17:06;;;;;;;69.57;34.90;;;;;;;-0.88;100.00;102615.91;5130662;29;20031;-69
2022/12/17 16:19:37;;;;;;;72.32;36.95;;;;;;;-0.90;100.00;102603.09;5131886;29;20024;-69
2022/12/17 16:22:08;;;;;;;71.40;35.75;;;;;;;-0.89;100.00;102604.78;5129130;29;20038;-69
2022/12/17 16:24:39;;;;;;;71.63;37.33;;;;;;;-0.88;100.00;102618.50;5128725;29;20481;-69
2022/12/17 16:27:12;;;;;;;73.57;37.63;;;;;;;-0.90;100.00;102609.94;5131349;29;20058;-69
2022/12/17 16:29:45;;;;;;;80.60;37.90;;;;;;;-0.90;100.00;102610.81;5130175;29;20036;-69
2022/12/17 16:32:17;;;;;;;75.80;39.33;;;;;;;-0.90;100.00;102617.66;5130048;29;20114;-69
2022/12/17 16:34:48;;;;;;;77.30;37.40;;;;;;;-0.92;100.00;102616.81;5131085;29;20118;-69
2022/12/17 16:37:19;;;;;;;70.68;36.42;;;;;;;-0.97;100.00;102616.88;5131742;29;20035;-69
2022/12/17 16:39:50;;;;;;;69.85;35.60;;;;;;;-0.98;100.00;102617.75;5128434;29;20082;-69
2022/12/17 16:42:22;;;;;;;70.18;37.95;;;;;;;-0.98;100.00;102612.59;5130113;29;20044;-69
2022/12/17 16:44:53;;;;;;;69.72;35.90;;;;;;;-1.01;100.00;102616.03;5123806;29;20028;-69
2022/12/17 16:47:24;;;;;;;72.88;38.03;;;;;;;-1.00;100.00;102610.00;5135669;29;20059;-69
2022/12/17 16:49:56;;;;;;;73.57;36.92;;;;;;;-1.08;100.00;102624.66;5101870;29;20027;-69
2022/12/17 16:52:27;;;;;;;77.07;37.80;;;;;;;-1.06;100.00;102610.09;5130837;29;20032;-69
2022/12/17 16:54:58;;;;;;;76.57;37.47;;;;;;;-1.05;100.00;102618.66;5135735;29;20066;-69
2022/12/17 16:57:29;;;;;;;77.68;38.83;;;;;;;-1.08;100.00;102637.53;5133082;29;20070;-69
2022/12/17 17:00:01;;;;;;;80.20;38.40;;;;;;;-1.13;100.00;102623.00;5133864;29;20071;-69
2022/12/17 17:02:32;;;;;;;75.78;38.75;;;;;;;-1.08;100.00;102623.81;5134977;29;20095;-69
2022/12/17 17:05:03;;;;;;;75.72;38.00;;;;;;;-1.14;100.00;102619.56;5129433;29;20549;-69
2022/12/17 17:07:35;;;;;;;73.35;35.97;;;;;;;-1.16;100.00;102618.72;5134989;29;20023;-69
2022/12/17 17:10:06;;;;;;;72.65;36.75;;;;;;;-1.16;100.00;102621.28;5135057;29;20126;-69
2022/12/17 17:12:37;;;;;;;70.78;35.17;;;;;;;-1.13;100.00;102625.56;5133245;29;20059;-69
2022/12/17 17:15:09;;;;;;;71.72;35.38;;;;;;;-1.15;100.00;102625.56;5128727;29;20614;-69
2022/12/17 17:17:40;;;;;;;75.72;36.38;;;;;;;-1.12;100.00;102629.84;5133629;29;20023;-69
2022/12/17 17:20:12;;;;;;;72.30;35.33;;;;;;;-1.12;100.00;102635.84;5129653;29;20072;-69
2022/12/17 17:22:43;;;;;;;69.90;34.92;;;;;;;-1.22;100.00;102639.34;5130439;29;20094;-69
2022/12/17 17:25:14;;;;;;;75.65;36.17;;;;;;;-1.22;100.00;102645.31;5126596;29;20111;-69
2022/12/17 17:27:46;;;;;;;72.13;35.67;;;;;;;-1.32;100.00;102636.00;5128893;29;20035;-69
2022/12/17 17:30:17;;;;;;;69.72;34.35;;;;;;;-1.30;100.00;102638.53;5130182;29;20027;-69
2022/12/17 17:32:48;;;;;;;75.22;37.03;;;;;;;-1.30;100.00;102644.53;5135503;29;20028;-69
2022/12/17 17:35:19;;;;;;;78.43;36.92;;;;;;;-1.28;100.00;102641.97;5130880;29;20036;-69
2022/12/17 17:37:51;;;;;;;79.95;38.83;;;;;;;-1.36;100.00;102643.72;5131127;29;20027;-69
2022/12/17 17:40:22;;;;;;;78.65;35.10;;;;;;;-1.44;100.00;102648.88;5129438;29;20044;-69
2022/12/17 17:42:54;;;;;;;75.85;35.95;;;;;;;-1.51;100.00;102647.25;5130771;29;20057;-69
2022/12/17 17:45:25;;;;;;;71.68;34.28;;;;;;;-1.44;100.00;102648.88;5130704;29;20027;-69
2022/12/17 17:47:57;;;;;;;71.05;34.28;;;;;;;-1.40;100.00;102645.47;5131962;29;20023;-69
2022/12/17 17:50:28;;;;;;;72.85;34.47;;;;;;;-1.33;100.00;102646.25;5134408;29;20197;-69
2022/12/17 17:52:59;;;;;;;73.40;35.53;;;;;;;-1.34;100.00;102649.72;5134027;29;20028;-69
2022/12/17 17:55:33;;;;;;;69.78;33.83;;;;;;;-1.36;100.00;102647.16;5131230;29;20035;-69
2022/12/17 17:58:04;;;;;;;66.82;32.80;;;;;;;-1.46;100.00;102660.91;5128848;29;20027;-69
2022/12/17 18:00:36;;;;;;;59.42;30.58;;;;;;;-1.45;100.00;102654.06;5125008;29;20572;-69
2022/12/17 18:03:07;;;;;;;58.78;30.80;;;;;;;-1.47;100.00;102649.78;5126214;29;20821;-69
2022/12/17 18:05:41;;;;;;;67.70;33.22;;;;;;;-1.48;100.00;102657.50;5129293;29;20031;-69
2022/12/17 18:08:12;;;;;;;;;;;;;;;-1.05;100.00;102654.66;5132618;29;20030;-70
2022/12/17 18:10:53;;;;;;;56.27;29.37;;;;;;;-1.35;100.00;102658.28;5134184;29;19919;-69
2022/12/17 18:16:15;;;;;;;66.57;32.63;;;;;;;-1.54;100.00;102647.25;5132185;29;20027;-69
2022/12/17 18:18:46;;;;;;;59.75;30.40;;;;;;;-1.62;100.00;102644.72;5132005;29;20028;-69
2022/12/17 18:21:18;;;;;;;66.55;32.13;;;;;;;-1.62;100.00;102654.16;5134460;29;20039;-69
2022/12/17 18:23:58;;;;;;;69.55;31.88;;;;;;;-1.52;100.00;102661.78;5132459;29;20391;-69
2022/12/17 18:26:34;;;;;;;65.70;31.00;;;;;;;-1.54;100.00;102657.53;5129480;29;20780;-69
2022/12/17 18:29:27;;;;;;;75.80;34.67;;;;;;;-1.54;100.00;102657.53;5135088;29;20027;-69
2022/12/17 18:31:58;;;;;;;68.43;32.85;;;;;;;-1.51;100.00;102652.38;5127422;29;20043;-69
2022/12/17 18:34:30;;;;;;;72.60;34.53;;;;;;;-1.50;100.00;102648.94;5132466;29;20032;-69
2022/12/17 18:37:01;;;;;;;72.85;35.20;;;;;;;-1.49;100.00;102650.66;5132390;29;20026;-69
2022/12/17 18:39:32;;;;;;;72.45;33.67;;;;;;;-1.52;100.00;102648.94;5135099;29;20031;-69
2022/12/17 18:44:53;;;;;;;70.78;33.70;;;;;;;-1.53;100.00;102641.25;5133310;29;20051;-69
2022/12/17 18:47:25;;;;;;;76.05;35.50;;;;;;;-1.43;100.00;102655.75;5135139;29;20342;-69
2022/12/17 18:49:56;;;;;;;78.57;35.53;;;;;;;-1.49;100.00;102646.34;5128709;29;20503;-68
2022/12/17 18:52:27;;;;;;;76.38;36.97;;;;;;;-1.49;100.00;102651.50;5123413;29;20024;-69
2022/12/17 18:54:58;;;;;;;75.82;36.90;;;;;;;-1.58;100.00;102650.72;5126252;29;20028;-69
2022/12/17 18:57:30;;;;;;;73.07;35.60;;;;;;;-1.76;100.00;102636.22;5133166;29;20102;-69
2022/12/17 19:00:02;;;;;;;76.88;35.80;;;;;;;-1.64;100.00;102659.28;5132177;29;20147;-69
2022/12/17 19:02:33;;;;;;;72.43;36.25;;;;;;;-1.62;100.00;102662.72;5127259;29;20036;-69
2022/12/17 19:05:05;;;;;;;71.38;33.35;;;;;;;-1.68;100.00;102667.88;5113390;29;20023;-69
2022/12/17 19:07:36;;;;;;;68.32;33.10;;;;;;;-1.76;100.00;102664.50;5132423;29;20035;-69
2022/12/17 19:10:08;;;;;;;62.42;31.42;;;;;;;-1.79;100.00;102667.06;5134320;29;20035;-69
2022/12/17 19:12:39;;;;;;;62.20;30.88;;;;;;;-1.86;100.00;102661.09;5129453;29;20039;-70
2022/12/17 19:15:10;;;;;;;63.88;30.52;;;;;;;-1.87;100.00;102669.66;5122899;29;20034;-69
2022/12/17 19:17:42;;;;;;;61.25;30.55;;;;;;;-1.90;100.00;102672.25;5106492;29;20072;-69
2022/12/17 19:20:13;;;;;;;61.08;31.35;;;;;;;-1.87;100.00;102668.81;5123358;29;20030;-69
2022/12/17 19:22:44;;;;;;;62.30;31.38;;;;;;;-1.86;100.00;102681.66;5129684;29;20035;-69
2022/12/17 19:25:16;;;;;;;64.68;31.60;;;;;;;-1.89;100.00;102680.81;5129541;29;20055;-69
2022/12/17 19:27:47;;;;;;;63.10;31.88;;;;;;;-1.89;100.00;102693.66;5127442;29;21232;-69
2022/12/17 19:30:18;;;;;;;61.33;30.20;;;;;;;-1.87;100.00;102692.78;5130105;29;20028;-69
2022/12/17 19:32:50;;;;;;;68.38;32.55;;;;;;;-1.89;100.00;102698.81;5128169;29;20028;-68
2022/12/17 19:35:21;;;;;;;69.05;32.65;;;;;;;-1.84;100.00;102699.63;5130881;29;20035;-69
2022/12/17 19:37:52;;;;;;;62.63;31.48;;;;;;;-1.84;100.00;102702.22;5127152;29;20030;-69
2022/12/17 19:40:23;;;;;;;65.47;30.77;;;;;;;-1.85;100.00;102691.09;5130817;29;20516;-69
2022/12/17 19:42:55;;;;;;;60.25;30.20;;;;;;;-1.84;100.00;102687.63;5131638;29;20481;-69
2022/12/17 19:45:26;;;;;;;65.93;31.90;;;;;;;-1.82;100.00;102688.50;5130986;29;20489;-69
2022/12/17 19:47:57;;;;;;;59.50;30.23;;;;;;;-1.84;100.00;102682.50;5133192;29;20034;-69
2022/12/17 19:50:28;;;;;;;65.68;32.80;;;;;;;-1.83;100.00;102681.63;5111146;29;20091;-69
2022/12/17 19:53:00;;;;;;;63.15;31.77;;;;;;;-1.86;100.00;102679.06;5132833;29;20035;-69
2022/12/17 19:55:31;;;;;;;61.55;31.02;;;;;;;-1.88;100.00;102682.53;5129014;29;20132;-69
2022/12/17 19:58:02;;;;;;;59.17;30.67;;;;;;;-1.94;100.00;102687.69;5132608;29;20028;-69
2022/12/17 20:00:34;;;;;;;64.07;31.63;;;;;;;-1.94;100.00;102692.81;5130627;29;20478;-68
2022/12/17 20:03:05;;;;;;;59.67;31.48;;;;;;;-1.94;100.00;102691.09;5131699;29;20508;-68
2022/12/17 20:05:36;;;;;;;58.90;31.05;;;;;;;-1.99;100.00;102690.25;5125222;29;20436;-68
2022/12/17 20:08:07;;;;;;;60.67;33.28;;;;;;;-1.99;100.00;102690.25;5127216;29;20028;-68
2022/12/17 20:10:39;;;;;;;55.55;29.60;;;;;;;-2.02;100.00;102697.97;5126987;29;20039;-68
2022/12/17 20:13:10;;;;;;;65.20;33.45;;;;;;;-1.98;100.00;102715.09;5117284;29;20027;-69
2022/12/17 20:15:41;;;;;;;66.97;34.88;;;;;;;-2.04;100.00;102698.00;5126014;29;20027;-69
2022/12/17 20:18:13;;;;;;;61.17;32.10;;;;;;;-1.92;100.00;102717.66;5129153;29;20031;-68
2022/12/17 20:20:44;;;;;;;61.58;32.17;;;;;;;-1.89;100.00;102722.78;5125839;29;20016;-69
2022/12/17 20:23:15;;;;;;;66.97;31.80;;;;;;;-1.91;100.00;102724.47;5124356;29;20485;-69
2022/12/17 20:25:46;;;;;;;58.95;30.40;;;;;;;-1.96;100.00;102728.78;5129137;29;20027;-69
2022/12/17 20:28:17;;;;;;;58.67;31.63;;;;;;;-1.94;100.00;102732.19;5130331;29;20032;-69
2022/12/17 20:30:49;;;;;;;62.00;29.73;;;;;;;-1.95;100.00;102712.50;5127627;29;20028;-69
2022/12/17 20:33:20;;;;;;;61.13;31.73;;;;;;;-1.99;100.00;102705.69;5129771;29;20028;-69
2022/12/17 20:35:52;;;;;;;61.75;31.90;;;;;;;-1.93;100.00;102712.50;5130661;29;20032;-69
2022/12/17 20:38:23;;;;;;;59.08;31.08;;;;;;;-1.96;100.00;102708.25;5126589;29;20549;-69
2022/12/17 20:40:54;;;;;;;56.72;30.50;;;;;;;-1.94;100.00;102697.94;5131995;29;20043;-69
2022/12/17 20:43:26;;;;;;;61.35;31.38;;;;;;;-2.01;100.00;102702.25;5130401;29;20019;-69
2022/12/17 20:46:00;;;;;;;63.53;31.90;;;;;;;-1.87;100.00;102692.78;5130207;29;20119;-69
2022/12/17 20:48:32;;;;;;;64.18;33.47;;;;;;;-1.88;100.00;102697.94;5129403;29;20481;-69
2022/12/17 20:51:09;;;;;;;65.60;32.83;;;;;;;-1.82;100.00;102701.34;5130692;29;20028;-69
2022/12/17 20:53:42;;;;;;;61.78;32.20;;;;;;;-1.94;100.00;102692.81;5127329;29;20027;-69
2022/12/17 20:56:18;;;;;;;57.20;31.20;;;;;;;-1.88;100.00;102697.94;5125064;29;20040;-69
2022/12/17 20:58:58;;;;;;;59.97;30.45;;;;;;;-1.89;100.00;102696.25;5124011;29;20031;-69
2022/12/17 21:01:32;;;;;;;55.35;29.42;;;;;;;-2.07;100.00;102692.00;5125794;29;20170;-70
2022/12/17 21:04:06;;;;;;;60.55;29.73;;;;;;;-2.15;100.00;102689.47;5129462;29;20039;-70
2022/12/17 21:06:45;;;;;;;56.97;30.40;;;;;;;-2.21;100.00;102689.47;5128811;29;20059;-70
2022/12/17 21:09:18;;;;;;;58.47;31.92;;;;;;;-2.07;100.00;102702.28;5129891;29;20028;-70
2022/12/17 21:11:50;;;;;;;60.80;30.05;;;;;;;-2.04;100.00;102700.56;5130642;29;20027;-69
2022/12/17 21:14:21;;;;;;;56.88;29.30;;;;;;;-2.04;100.00;102698.00;5124219;29;20511;-70
2022/12/17 21:16:52;;;;;;;55.30;29.65;;;;;;;-2.04;100.00;102702.28;5123668;29;20034;-69
2022/12/17 21:19:23;;;;;;;58.47;29.92;;;;;;;-2.01;100.00;102713.41;5121349;29;20036;-69
2022/12/17 21:21:55;;;;;;;57.58;30.08;;;;;;;-2.07;100.00;102702.28;5126240;29;20023;-69
2022/12/17 21:24:26;;;;;;;54.13;28.08;;;;;;;-2.10;100.00;102707.41;5110167;29;20031;-69
2022/12/17 21:26:57;;;;;;;54.42;28.48;;;;;;;-2.12;100.00;102706.53;5124946;29;20027;-69
2022/12/17 21:29:29;;;;;;;57.58;29.10;;;;;;;-2.16;100.00;102712.53;5120365;29;20098;-69
2022/12/17 21:32:01;;;;;;;52.53;27.58;;;;;;;-2.25;100.00;102713.44;5128182;29;20028;-69
2022/12/17 21:34:34;;;;;;;56.45;29.80;;;;;;;-2.26;100.00;102715.16;5127668;29;20042;-71
2022/12/17 21:37:05;;;;;;;53.78;27.25;;;;;;;-2.29;100.00;102704.88;5131821;29;20505;-69
2022/12/17 21:39:36;;;;;;;50.88;28.70;;;;;;;-2.36;100.00;102692.91;5126237;29;20027;-69
2022/12/17 21:44:57;;;;;;;49.30;27.17;;;;;;;-2.36;100.00;102715.16;5132621;29;20031;-69
2022/12/17 21:47:31;;;;;;;52.40;27.17;;;;;;;-2.31;100.00;102714.31;5129431;29;20465;-69
2022/12/17 21:50:02;;;;;;;50.53;27.58;;;;;;;-2.38;100.00;102717.72;5130721;29;20034;-69
2022/12/17 21:52:34;;;;;;;51.85;27.88;;;;;;;-2.35;100.00;102719.41;5125535;29;20027;-69
2022/12/17 21:55:05;;;;;;;51.15;26.98;;;;;;;-2.35;100.00;102720.31;5125702;29;20028;-69
2022/12/17 21:57:37;;;;;;;52.13;27.58;;;;;;;-2.43;100.00;102724.56;5128535;29;20050;-69
2022/12/17 22:00:09;;;;;;;49.95;27.23;;;;;;;-2.39;100.00;102727.97;5130368;29;20073;-69
2022/12/17 22:02:41;;;;;;;51.88;28.38;;;;;;;-2.43;100.00;102732.25;5132619;29;20153;-69
2022/12/17 22:05:12;;;;;;;56.08;29.25;;;;;;;-2.44;100.00;102722.84;5129718;29;20035;-69
2022/12/17 22:07:43;;;;;;;53.53;28.73;;;;;;;-2.43;100.00;102727.13;5131884;29;20431;-69
2022/12/17 22:10:14;;;;;;;53.92;27.65;;;;;;;-2.43;100.00;102728.84;5131815;29;20516;-69
2022/12/17 22:15:38;;;;;;;48.67;26.50;;;;;;;-2.45;100.00;102742.53;5131614;29;20043;-69
2022/12/17 22:18:09;;;;;;;49.95;26.55;;;;;;;-2.51;100.00;102747.66;5133305;29;20066;-69
2022/12/17 22:20:40;;;;;;;50.45;26.50;;;;;;;-2.53;100.00;102743.41;5132131;29;20524;-70
2022/12/17 22:23:12;;;;;;;49.75;25.95;;;;;;;-2.49;100.00;102751.09;5130343;29;20369;-69
2022/12/17 22:25:43;;;;;;;46.33;26.42;;;;;;;-2.51;100.00;102765.63;5130989;29;20035;-69
2022/12/17 22:28:14;;;;;;;45.47;25.02;;;;;;;-2.52;100.00;102760.50;5133822;29;20441;-70
2022/12/17 22:33:35;;;;;;;41.85;24.73;;;;;;;-2.66;100.00;102751.94;5133320;29;20043;-70
2022/12/17 22:36:07;;;;;;;42.65;24.15;;;;;;;-2.60;100.00;102757.09;5131023;29;20032;-69
2022/12/17 22:38:38;;;;;;;43.65;24.20;;;;;;;-2.64;100.00;102752.81;5124436;29;20486;-69
2022/12/17 22:43:28;;;;;;;46.47;26.00;;;;;;;-2.63;100.00;102751.94;5129459;29;20099;-69
2022/12/17 22:44:01;;;;;;;46.35;25.73;;;;;;;-2.64;100.00;102747.69;5130227;29;20504;-69
2022/12/17 22:46:33;;;;;;;41.60;23.98;;;;;;;-2.72;100.00;102740.81;5133735;29;20031;-70
2022/12/17 22:49:04;;;;;;;45.75;25.55;;;;;;;-2.76;100.00;102738.25;5134707;29;20545;-69
2022/12/17 22:51:35;;;;;;;44.88;25.10;;;;;;;-2.81;100.00;102727.97;5134083;29;20067;-70
2022/12/17 22:54:08;;;;;;;44.53;25.08;;;;;;;-2.80;100.00;102739.13;5131312;29;20035;-69
2022/12/17 22:56:41;;;;;;;44.83;25.53;;;;;;;-2.77;100.00;102741.66;5131417;29;20107;-70
2022/12/17 22:59:17;;;;;;;51.03;26.45;;;;;;;-2.80;100.00;102734.84;5130193;29;20291;-70
2022/12/17 23:01:48;;;;;;;42.30;25.50;;;;;;;-2.90;100.00;102730.53;5130800;29;20524;-70
2022/12/17 23:04:19;;;;;;;50.72;29.58;;;;;;;-2.92;100.00;102745.06;5124999;29;20059;-70
2022/12/17 23:06:50;;;;;;;52.92;28.30;;;;;;;-2.96;100.00;102753.59;5124362;29;20027;-70
2022/12/17 23:09:22;;;;;;;41.88;24.70;;;;;;;-2.95;100.00;102751.06;5130194;29;20020;-70
2022/12/17 23:11:54;;;;;;;45.50;25.58;;;;;;;-3.05;100.00;102743.34;5132584;29;20039;-70
2022/12/17 23:14:25;;;;;;;47.63;24.75;;;;;;;-3.04;100.00;102730.50;5132877;29;20027;-71
2022/12/17 23:16:56;;;;;;;42.38;23.70;;;;;;;-3.01;100.00;102729.66;5130156;29;20028;-70
2022/12/17 23:19:27;;;;;;;43.05;26.88;;;;;;;-3.07;100.00;102715.13;5131802;29;20055;-70
2022/12/17 23:21:59;;;;;;;51.92;29.42;;;;;;;-3.11;100.00;102709.97;5130949;29;20027;-70
2022/12/17 23:24:30;;;;;;;48.20;27.70;;;;;;;-3.11;100.00;102710.84;5132919;29;20043;-70
2022/12/17 23:27:01;;;;;;;48.55;26.00;;;;;;;-3.15;100.00;102719.38;5134025;29;20023;-71
2022/12/17 23:29:32;;;;;;;46.20;25.70;;;;;;;-3.23;100.00;102721.91;5130145;29;20088;-70
2022/12/17 23:32:04;;;;;;;43.13;24.33;;;;;;;-3.25;100.00;102720.22;5134233;29;20027;-71
2022/12/17 23:34:36;;;;;;;44.15;25.27;;;;;;;-3.25;100.00;102726.19;5132096;29;20032;-70
2022/12/17 23:37:07;;;;;;;45.20;25.42;;;;;;;-3.25;100.00;102727.91;5133136;29;20024;-70
2022/12/17 23:39:38;;;;;;;45.35;26.05;;;;;;;-3.28;100.00;102725.34;5131877;29;20199;-70
2022/12/17 23:42:09;;;;;;;42.00;25.10;;;;;;;-3.25;100.00;102725.34;5130039;29;20536;-70
2022/12/17 23:44:41;;;;;;;46.67;25.45;;;;;;;-3.30;100.00;102727.03;5130171;29;20038;-70
2022/12/17 23:47:12;;;;;;;46.05;24.58;;;;;;;-3.36;100.00;102720.19;5131241;29;20054;-70
2022/12/17 23:49:43;;;;;;;44.40;24.63;;;;;;;-3.35;100.00;102728.72;5132751;29;20044;-70
2022/12/17 23:52:14;;;;;;;38.50;23.38;;;;;;;-3.38;100.00;102733.84;5130209;29;20027;-70
2022/12/17 23:54:46;;;;;;;42.88;25.58;;;;;;;-3.45;100.00;102723.59;5128443;29;20030;-71
2022/12/17 23:57:17;;;;;;;43.53;24.33;;;;;;;-3.42;100.00;102738.09;5130696;29;20023;-70
2022/12/17 23:59:48;;;;;;;41.53;24.05;;;;;;;-3.45;100.00;102743.19;5129610;29;20084;-70
